Port William, Ohio
Current Conditions -  °F | °C
As of 10:54 AM on Monday 24 Nov 2014 (Local Time) from KILN Reporting Station
Light Rain Light Rain  
Wind Chill: 60°   Ceiling: 4100
Heat Index: 60°   Visibility: 10mi
Dew Point: 48°   Wind: 35mph
Humidity: 64%   Direction: 210°SSW
Pressure: 29.36"   Gusts: 49mph
Location:  39.55°N, 83.79°W
Report Text: KILN 241554Z AUTO 21030G43KT 10SM -RA BKN041 BKN050 OVC060 16/09 A2936 RMK AO2 PK WND 22043/1552 RAB45 SLP943 P0000 T01560089
Loading
Personal Weather Stations






























Interactive Weather Map New forecast layout! Learn more

10-Day Weather Forecast

Advertisements
Track Severe Weather on mobile